deformed-offering

Nearby METAR Reports

 

KNUQ - Moffett Nas/Mtn, California, USA
Distance from station: N 9mi, 14km
Updated: Thu, 21-Nov-2019 8:56am PST
NOT Current

 
Barometer: 29.86 inHg , 1011.2 hPa
2019/11/21 16:56 KNUQ 211656Z AUTO A2986 RMK AO2 SLP116 PWINO $
KSJC - San Jose, California, USA
Distance from station: NE 9mi, 14km
Updated: Tue, 28-Jan-2020 11:53pm PST
NOT Current
Mostly Cloudy
Mostly Cloudy
 Wind from W
Wind: W 3 mph , 6 km/h
Temperature: 48°F , 9°C
Dew Point: 45°F , 7°C
Humidity: 87%
Barometer: 30.31 inHg , 1026.4 hPa
Clouds: Mostly Cloudy
Visibility: 10 miles , 16 km
Cloud details: Few Clouds 100 ft
Partly Cloudy 800 ft
Mostly Cloudy 1200 ft
2020/01/29 07:53 KSJC 290753Z 26003KT 10SM FEW001 SCT008 BKN012 09/07 A3031 RMK AO2 SLP263 LAST T00890072 401670089
 
KRHV - San Jose/Reid, California, USA
Distance from station: ENE 12mi, 19km
Updated: Tue, 28-Jan-2020 9:54pm PST
NOT Current
Mostly Cloudy
Mostly Cloudy
 Wind from calm
Wind: Calm
Temperature: 52°F , 11°C
Dew Point: 46°F , 8°C
Humidity: 82%
Barometer: 30.31 inHg , 1026.4 hPa
Clouds: Mostly Cloudy
Visibility: 5 miles , 8 km
Cloud details: Few Clouds 1000 ft
Partly Cloudy 2000 ft
Mostly Cloudy 4000 ft
2020/01/29 05:54 KRHV 290554Z 00000KT 5SM FEW010 SCT020 BKN040 11/08 A3031
KPAO - Palo Alto, California, USA
Distance from station: NNW 14mi, 23km
Updated: Tue, 28-Jan-2020 8:47pm PST
NOT Current
Clear
Clear
 Wind from WSW
Wind: WSW 5 mph , 7 km/h
Temperature: 50°F , 10°C
Wind Chill: 48°F , 9°C
Dew Point: 46°F , 8°C
Humidity: 88%
Barometer: 30.31 inHg , 1026.4 hPa
Clouds: Clear
Visibility: 10 miles , 16 km
2020/01/29 04:47 KPAO 290447Z 24004KT 10SM SKC 10/08 A3031 RMK LAST
 
KSQL - San Carlos Airpo, California, USA
Distance from station: NW 21mi, 34km
Updated: Wed, 29-Jan-2020 4:15am PST
Clear
Clear
 Wind from calm
Wind: Calm
Temperature: 46°F , 8°C
Dew Point: 46°F , 8°C
Humidity: 100%
Barometer: 30.29 inHg , 1025.7 hPa
Clouds: Clear
Visibility: 7 miles , 11 km
2020/01/29 12:15 KSQL 291215Z AUTO 00000KT 7SM CLR 08/08 A3029 RMK AO2
KE16 - San Martin, California, USA
Distance from station: ESE 27mi, 43km
Updated: Thu, 14-Nov-2019 1:35am PST
NOT Current
Overcast
Overcast
 Wind from SE
Wind: SE 7 mph , 11 km/h
Temperature: 54°F , 12°C
Dew Point: 50°F , 10°C
Humidity: 88%
Barometer: 30.05 inHg , 1017.6 hPa
Clouds: Overcast
Visibility: 10 miles , 16 km
Cloud details: Overcast 1400 ft
2019/11/14 09:35 KE16 140935Z AUTO 13006KT 10SM OVC014 12/10 A3005 RMK AO2
 
KWVI - Watsonville, California, USA
Distance from station: SSE 27mi, 44km
Updated: Wed, 29-Jan-2020 4:11am PST
Mostly Cloudy
Mostly Cloudy
 Wind from calm
Wind: Calm
Temperature: 45°F , 7°C
Dew Point: 43°F , 6°C
Humidity: 93%
Barometer: 30.27 inHg , 1025.1 hPa
Clouds: Mostly Cloudy
Visibility: 10 miles , 16 km
Cloud details: Mostly Cloudy 900 ft
2020/01/29 12:11 KWVI 291211Z AUTO 00000KT 10SM BKN009 07/06 A3027 RMK AO2 T00670056
KHWD - Hayward, California, USA
Distance from station: N 28mi, 44km
Updated: Wed, 29-Jan-2020 3:54am PST
Clear
Clear
 Wind from NE
Wind: NE 3 mph , 6 km/h
Temperature: 45°F , 7°C
Dew Point: 43°F , 6°C
Humidity: 93%
Barometer: 30.28 inHg , 1025.4 hPa
Clouds: Clear
Visibility: 10 miles , 16 km
2020/01/29 11:54 KHWD 291154Z AUTO 05003KT 10SM CLR 07/06 A3028 RMK AO2 SLP265 70001 T00720056 10100 20072 58008
 
KSFO - San Francisco, California, USA
Distance from station: NW 30mi, 49km
Updated: Wed, 29-Jan-2020 3:56am PST
Clear
Clear
 Wind from calm
Wind: Calm
Temperature: 50°F , 10°C
Dew Point: 45°F , 7°C
Humidity: 82%
Barometer: 30.28 inHg , 1025.4 hPa
Clouds: Clear
Visibility: 8 miles , 13 km
2020/01/29 11:56 KSFO 291156Z 00000KT 8SM CLR 10/07 A3028 RMK AO2 SLP253 70003 T01000072 10122 20094 58009
KHAF - Half Moon Bay, California, USA
Distance from station: WNW 31mi, 50km
Updated: Wed, 29-Jan-2020 4:20am PST
Few Clouds
Few Clouds
 Wind from calm
Wind: Calm
Temperature: 45°F , 7°C
Dew Point: 43°F , 6°C
Humidity: 93%
Barometer: 30.28 inHg , 1025.4 hPa
Clouds: Few Clouds
Visibility: 7 miles , 11 km
Cloud details: Few Clouds 300 ft
2020/01/29 12:20 KHAF 291220Z AUTO 00000KT 7SM FEW003 07/06 A3028 RMK AO2
 
KOAK - Oakland, California, USA
Distance from station: NNW 31mi, 50km
Updated: Wed, 29-Jan-2020 3:53am PST
Few Clouds
Few Clouds
 Wind from E
Wind: E 3 mph , 6 km/h
Temperature: 46°F , 8°C
Dew Point: 43°F , 6°C
Humidity: 87%
Barometer: 30.29 inHg , 1025.7 hPa
Clouds: Few Clouds
Visibility: 10 miles , 16 km
Cloud details: Few Clouds 2000 ft
2020/01/29 11:53 KOAK 291153Z 09003KT 10SM FEW020 08/06 A3029 RMK AO2 SLP257 70003 T00780061 10117 20072 58007
KLVK - Livermore, California, USA
Distance from station: NNE 31mi, 51km
Updated: Wed, 29-Jan-2020 4:24am PST
Mist, Few clouds
Mist, Few clouds
 Wind from WSW
Wind: WSW 3 mph , 6 km/h
Temperature: 39°F , 4°C
Dew Point: 39°F , 4°C
Humidity: 100%
Barometer: 30.29 inHg , 1025.7 hPa
Summary: Mist
Clouds: Few Clouds
Visibility: 1 3/4 miles , 2.8 km
Cloud details: Few Clouds 1100 ft
2020/01/29 12:24 KLVK 291224Z AUTO 24003KT 1 3/4SM BR FEW011 04/04 A3029 RMK AO2 VIS 1/2V5 T00390039
 
KCVH - Hollister Muni, California, USA
Distance from station: SE 42mi, 68km
Updated: Wed, 29-Jan-2020 4:20am PST
Mist, Overcast
Mist, Overcast
 Wind from calm
Wind: Calm
Temperature: 50°F , 10°C
Dew Point: 46°F , 8°C
Humidity: 88%
Barometer: 30.28 inHg , 1025.4 hPa
Summary: Mist
Clouds: Overcast
Visibility: 6 miles , 10 km
Cloud details: Overcast 1200 ft
2020/01/29 12:20 KCVH 291220Z AUTO 00000KT 6SM BR OVC012 10/08 A3028 RMK A01
KSNS - Salinas, California, USA
Distance from station: SSE 48mi, 77km
Updated: Wed, 29-Jan-2020 2:53am PST
NOT Current
Overcast
Overcast
 Wind from WNW
Wind: WNW 3 mph , 6 km/h
Temperature: 48°F , 9°C
Dew Point: 46°F , 8°C
Humidity: 94%
Barometer: 30.29 inHg , 1025.7 hPa
Clouds: Overcast
Visibility: 10 miles , 16 km
Cloud details: Overcast 2200 ft
2020/01/29 10:53 KSNS 291053Z AUTO 29003KT 10SM OVC022 09/08 A3029 RMK AO2 SLP268 T00940078
 
KMRY - Monterey, California, USA
Distance from station: SSE 49mi, 78km
Updated: Wed, 29-Jan-2020 3:54am PST
Clear
Clear
 Wind from E
Wind: E 5 mph , 7 km/h
Temperature: 46°F , 8°C
Wind Chill: 44°F , 7°C
Dew Point: 43°F , 6°C
Humidity: 87%
Barometer: 30.28 inHg , 1025.4 hPa
Clouds: Clear
Visibility: 10 miles , 16 km
2020/01/29 11:54 KMRY 291154Z 10004KT 10SM CLR 08/06 A3028 RMK AO2 SLP264 T00830061 10117 20078 58009
KCCR - Concord, California, USA
Distance from station: N 50mi, 81km
Updated: Wed, 29-Jan-2020 3:53am PST
Clear
Clear
 Wind from SW
Wind: SW 3 mph , 6 km/h
Temperature: 43°F , 6°C
Dew Point: 41°F , 5°C
Humidity: 93%
Barometer: 30.30 inHg , 1026.1 hPa
Clouds: Clear
Visibility: 9 miles , 14 km
2020/01/29 11:53 KCCR 291153Z AUTO 23003KT 9SM CLR 06/05 A3030 RMK AO2 SLP244 T00610050 10100 20061 58006
deformed-offering